Flight Track Log - Related Links

Times and Time Zones

All times are in EDT time to prevent confusion due to time zone crossing. See the SWA1849 flight status page for this flight to view local times or setup timezone preferences in your user account.

Time Position Orientation Groundspeed Altitude Reporting Facility
EDT Latitude Longitude Course Direction KTS MPH feet Rate Location/Type
Sat 12:42:37 PM 28.0333 -82.5333 360° North 195 224 2,600  Level Tampa TRACON
Sat 12:43:37 PM 28.1000 -82.5167 12° North 231 266 4,500 2,303 Climbing Tampa TRACON
Sat 12:45:42 PM 28.2622 -82.5344 354° North 280 322 9,700 2,303 Climbing Jacksonville Center
Sat 12:46:42 PM 28.3561 -82.5458 354° North 309 356 11,600 2,450 Climbing Jacksonville Center
Sat 12:47:42 PM 28.4647 -82.5597 354° North 353 406 14,600 3,100 Climbing Jacksonville Center
Sat 12:48:42 PM 28.5711 -82.5758 352° North 377 434 17,800 2,700 Climbing Jacksonville Center
Sat 12:49:42 PM 28.6817 -82.5919 353° North 393 452 20,000 2,200 Climbing Jacksonville Center
Sat 12:50:42 PM 28.7967 -82.6058 354° North 404 465 22,200 2,000 Climbing Jacksonville Center
Sat 12:51:42 PM 28.9156 -82.6222 353° North 416 479 24,000 1,750 Climbing Jacksonville Center
Sat 12:52:42 PM 29.0386 -82.6383 353° North 430 495 25,700 1,000 Climbing Jacksonville Center
Sat 12:53:42 PM 29.1703 -82.6572 353° North 451 519 26,000 1,200 Climbing Jacksonville Center
Sat 12:54:42 PM 29.2997 -82.6758 353° North 467 537 28,100 1,850 Climbing Jacksonville Center
Sat 12:55:42 PM 29.4333 -82.6922 354° North 467 537 29,700 1,500 Climbing Jacksonville Center
Sat 12:56:42 PM 29.5608 -82.6967 358° North 486 559 31,100 1,250 Climbing Jacksonville Center
Sat 12:57:42 PM 29.6986 -82.6942 North 491 565 32,200 1,250 Climbing Jacksonville Center
Sat 12:58:42 PM 29.8406 -82.6939 360° North 496 571 33,600 900 Climbing Jacksonville Center
Sat 12:59:42 PM 29.9803 -82.6911 North 496 571 34,000 850 Climbing Jacksonville Center
Sat 01:00:42 PM 30.1347 -82.6836 North 496 571 35,300 1,050 Climbing Jacksonville Center
Sat 01:01:42 PM 30.2392 -82.6497 16° North 490 564 36,100 1,000 Climbing Jacksonville Center
Sat 01:02:42 PM 30.3811 -82.5917 19° North 484 557 37,300 1,250 Climbing Jacksonville Center
Sat 01:03:42 PM 30.5103 -82.5381 20° North 484 557 38,600 850 Climbing Jacksonville Center
Sat 01:04:42 PM 30.6397 -82.4822 20° North 484 557 39,000 200 Climbing Jacksonville Center
Sat 01:05:42 PM 30.7667 -82.4283 20° North 484 557 39,000  Level Jacksonville Center
Sat 01:06:42 PM 30.8961 -82.3697 21° North 484 557 39,000  Level Jacksonville Center
Sat 01:07:42 PM 31.0231 -82.3156 20° North 484 557 39,000  Level Jacksonville Center
Sat 01:08:42 PM 31.1439 -82.2444 27° Northeast 479 551 39,000  Level Jacksonville Center
Sat 01:09:42 PM 31.2647 -82.1806 24° Northeast 479 551 39,000  Level Jacksonville Center
Sat 01:10:42 PM 31.3894 -82.1114 25° Northeast 479 551 39,000  Level Jacksonville Center
Sat 01:11:42 PM 31.5122 -82.0422 26° Northeast 479 551 39,000  Level Jacksonville Center
Sat 01:12:42 PM 31.6453 -81.9653 26° Northeast 480 552 39,000  Level Jacksonville Center
Sat 01:13:42 PM 31.7533 -81.9031 26° Northeast 486 559 39,000  Level Jacksonville Center
Sat 01:14:42 PM 31.8886 -81.8258 26° Northeast 486 559 39,000  Level Jacksonville Center
Sat 01:15:42 PM 32.0008 -81.7633 25° Northeast 486 559 39,000  Level Jacksonville Center
Sat 01:16:42 PM 32.1358 -81.6903 25° Northeast 486 559 39,000  Level Jacksonville Center
Sat 01:17:42 PM 32.2603 -81.6175 26° Northeast 486 559 39,000  Level Jacksonville Center
Sat 01:18:42 PM 32.3725 -81.5544 25° Northeast 486 559 39,000  Level Jacksonville Center
Sat 01:19:42 PM 32.5072 -81.4689 28° Northeast 486 559 39,000  Level Jacksonville Center
Sat 01:20:42 PM 32.6253 -81.3881 30° Northeast 493 567 39,000  Level Jacksonville Center
Sat 01:21:42 PM 32.7350 -81.3094 31° Northeast 498 573 39,000  Level Jacksonville Center
Sat 01:22:42 PM 32.8569 -81.2283 29° Northeast 498 573 39,000  Level Jacksonville Center
Sat 01:23:42 PM 32.9750 -81.1469 30° Northeast 498 573 39,000  Level Jacksonville Center
Sat 01:24:42 PM 33.0969 -81.0653 29° Northeast 493 567 39,000  Level Jacksonville Center
Sat 01:25:42 PM 33.2147 -80.9808 31° Northeast 493 567 39,000  Level Jacksonville Center
Sat 01:26:42 PM 33.3367 -80.9011 29° Northeast 493 567 39,000  Level Jacksonville Center
Sat 01:27:42 PM 33.4583 -80.8161 30° Northeast 493 567 39,000  Level Jacksonville Center
Sat 01:28:42 PM 33.5758 -80.7311 31° Northeast 493 567 39,000  Level Jacksonville Center
Sat 01:29:42 PM 33.6975 -80.6483 30° Northeast 493 567 39,000  Level Jacksonville Center
Sat 01:30:42 PM 33.8192 -80.5628 30° Northeast 498 573 39,000  Level Jacksonville Center
Sat 01:31:42 PM 33.9406 -80.4769 30° Northeast 498 573 39,000  Level Jacksonville Center
Sat 01:32:42 PM 34.0600 -80.3933 30° Northeast 492 566 39,000  Level Jacksonville Center
Sat 01:33:42 PM 34.1792 -80.3097 30° Northeast 492 566 39,000  Level Jacksonville Center
Sat 01:34:42 PM 34.3006 -80.2256 30° Northeast 492 566 39,000  Level Jacksonville Center
Sat 01:35:42 PM 34.4197 -80.1364 32° Northeast 497 572 39,000  Level Jacksonville Center
Sat 01:37:18 PM 34.6081 -80.0003 31° Northeast 526 605 39,000  Level Washington Center
Sat 01:38:18 PM 34.7300 -79.9183 29° Northeast 515 593 39,000  Level Washington Center
Sat 01:39:19 PM 34.8478 -79.8283 32° Northeast 503 579 39,000  Level Washington Center
Sat 01:40:17 PM 34.9700 -79.7411 30° Northeast 503 579 39,000  Level Washington Center
Sat 01:41:18 PM 35.1006 -79.6461 31° Northeast 503 579 39,000  Level Washington Center
Sat 01:42:19 PM 35.2164 -79.5453 35° Northeast 503 579 39,000  Level Washington Center
Sat 01:43:17 PM 35.3228 -79.4208 44° Northeast 509 586 39,000  Level Washington Center
Sat 01:44:18 PM 35.4308 -79.3011 42° Northeast 519 597 39,000  Level Washington Center
Sat 01:45:19 PM 35.5347 -79.1781 44° Northeast 519 597 39,000  Level Washington Center
Sat 01:46:20 PM 35.6383 -79.0603 43° Northeast 509 586 39,000  Level Washington Center
Sat 01:47:18 PM 35.7442 -78.9394 43° Northeast 509 586 39,000  Level Washington Center
Sat 01:48:18 PM 35.8497 -78.8158 43° Northeast 509 586 39,000  Level Washington Center
Sat 01:49:19 PM 35.9633 -78.7075 38° Northeast 509 586 39,000  Level Washington Center
Sat 01:50:17 PM 36.0806 -78.6067 35° Northeast 509 586 39,000  Level Washington Center
Sat 01:51:18 PM 36.1958 -78.5031 36° Northeast 509 586 39,000  Level Washington Center
Sat 01:52:19 PM 36.3131 -78.3992 36° Northeast 509 586 39,000  Level Washington Center
Sat 01:53:20 PM 36.4322 -78.2950 35° Northeast 509 586 39,000  Level Washington Center
Sat 01:54:17 PM 36.5514 -78.1906 35° Northeast 509 586 39,000  Level Washington Center
Sat 01:55:18 PM 36.6622 -78.0828 38° Northeast 507 583 39,000  Level Washington Center
Sat 01:56:19 PM 36.7833 -77.9778 35° Northeast 513 590 39,000  Level Washington Center
Sat 01:57:17 PM 36.8981 -77.8722 36° Northeast 513 590 39,000  Level Washington Center
Sat 01:58:18 PM 37.0167 -77.7664 35° Northeast 513 590 39,000  Level Washington Center
Sat 01:59:19 PM 37.1333 -77.6603 36° Northeast 518 596 39,000  Level Washington Center
Sat 02:00:20 PM 37.2519 -77.5514 36° Northeast 518 596 39,000  Level Washington Center
Sat 02:01:17 PM 37.3706 -77.4447 36° Northeast 518 596 39,000  Level Washington Center
Sat 02:02:18 PM 37.4869 -77.3375 36° Northeast 518 596 39,000  Level Washington Center
Sat 02:03:18 PM 37.6053 -77.2197 38° Northeast 523 602 39,000  Level Washington Center
Sat 02:04:19 PM 37.7067 -77.1169 39° Northeast 523 602 39,000  Level Washington Center
Sat 02:05:17 PM 37.8189 -76.9983 40° Northeast 523 602 39,000  Level Washington Center
Sat 02:06:18 PM 37.9347 -76.8819 38° Northeast 523 602 39,000  Level Washington Center
Sat 02:07:18 PM 38.0383 -76.7544 44° Northeast 523 602 39,000  Level Washington Center
Sat 02:08:18 PM 38.1375 -76.6133 48° Northeast 523 602 39,000  Level Washington Center
Sat 02:09:19 PM 38.2347 -76.4747 48° Northeast 523 602 39,000  Level Washington Center
Sat 02:10:20 PM 38.3544 -76.3383 42° Northeast 523 602 39,000  Level Washington Center
Sat 02:11:17 PM 38.4758 -76.2256 36° Northeast 518 596 39,000  Level Washington Center
Sat 02:12:19 PM 38.5953 -76.1175 35° Northeast 529 609 39,000  Level Washington Center
Sat 02:13:19 PM 38.7144 -76.0067 36° Northeast 529 609 39,000  Level Washington Center
Sat 02:14:17 PM 38.8317 -75.8956 36° Northeast 529 609 39,000  Level Washington Center
Sat 02:15:18 PM 38.9486 -75.7839 37° Northeast 524 603 39,000  Level Washington Center
Sat 02:16:18 PM 39.0675 -75.6719 36° Northeast 524 603 39,000  Level Washington Center
Sat 02:17:19 PM 39.1864 -75.5622 36° Northeast 524 603 39,000  Level Washington Center
Sat 02:18:19 PM 39.3050 -75.4494 36° Northeast 524 603 39,000  Level Washington Center
Sat 02:19:17 PM 39.4278 -75.3417 34° Northeast 524 603 39,000  Level Washington Center
Sat 02:20:18 PM 39.5483 -75.2308 35° Northeast 524 603 39,000 -188 Level Washington Center
Sat 02:21:57 PM 39.7503 -75.0478 35° Northeast 525 604 38,500 -792 Descending New York Center
Sat 02:22:57 PM 39.8692 -74.9306 37° Northeast 540 621 36,900 -1,190 Descending New York Center
Sat 02:23:58 PM 39.9803 -74.7992 42° Northeast 534 615 36,100 -850 Descending New York Center
Sat 02:24:57 PM 40.0972 -74.6675 41° Northeast 539 620 35,200 -950 Descending New York Center
Sat 02:25:58 PM 40.2161 -74.5300 41° Northeast 556 640 34,200 -1,350 Descending New York Center
Sat 02:26:57 PM 40.3372 -74.3925 41° Northeast 561 646 32,500 -1,613 Descending New York Center
Sat 02:27:57 PM 40.4539 -74.2539 42° Northeast 561 646 31,000 -1,200 Descending New York Center
Sat 02:28:57 PM 40.5769 -74.1128 41° Northeast 561 646 30,100 -1,533 Descending New York Center
Sat 02:30:57 PM 40.8153 -73.8364 41° Northeast 580 667 26,400 -2,000 Descending Boston Center
Sat 02:31:57 PM 40.9358 -73.6867 43° Northeast 590 679 24,100 -1,171 Descending Boston Center
Sat 02:33:00 PM 41.0575 -73.5358 43° Northeast 595 685 24,000 -484 Descending Boston Center
Sat 02:34:01 PM 41.1761 -73.3914 42° Northeast 583 671 23,100 -984 Descending Boston Center
Sat 02:35:02 PM 41.3017 -73.3019 28° Northeast 531 611 22,000 -1,033 Descending Boston Center
Sat 02:36:03 PM 41.4242 -73.3283 351° North 453 521 21,000 -1,508 Descending Boston Center
Sat 02:38:05 PM 41.6664 -73.3994 348° North 418 481 17,400 -1,672 Descending Boston Center
Sat 02:39:06 PM 41.7717 -73.4294 348° North 392 451 15,900 -1,289 Descending Boston Center
Sat 02:40:06 PM 41.8822 -73.4614 348° North 382 440 14,800 -1,306 Descending Boston Center
Sat 02:41:10 PM 41.9833 -73.4906 348° North 373 429 13,200 -1,586 Descending Boston Center
Sat 02:41:33 PM 42.0214 -73.4989 351° North 369 425 12,500 -1,915 Descending Boston Center
Sat 02:41:57 PM 42.0658 -73.5136 346° North 363 418 11,700 -1,500 Descending Boston Center
Sat 02:42:09 PM 42.0689 -73.5153 338° Northwest 366 421 11,600 -700 Descending Boston Center
Sat 02:42:57 PM 42.1533 -73.5511 343° North 314 361 11,000 -571 Descending Boston Center
Sat 02:43:12 PM 42.1556 -73.5542 314° West 320 368 11,000 -711 Level Boston Center
Sat 02:44:13 PM 42.2261 -73.5972 336° Northwest 280 322 10,100 -1,234 Descending Boston Center
Sat 02:44:59 PM 42.2922 -73.6375 336° Northwest 266 306 8,800 -1,770 Descending Boston Center
Sat 02:45:14 PM 42.3075 -73.6475 334° Northwest 267 307 8,300 -1,869 Descending Boston Center
Sat 02:46:00 PM 42.3578 -73.6767 337° Northwest 264 304 6,900 -1,869 Descending Boston Center
Sat 02:46:15 PM 42.3803 -73.6900 336° Northwest 269 310 6,400 -1,500 Descending Boston Center
Sat 02:47:00 PM 42.4256 -73.7169 336° Northwest 264 304 5,400 -1,355 Descending Boston Center
Sat 02:47:17 PM 42.4453 -73.7342 327° Northwest 263 303 5,000 -952 Descending Boston Center
Sat 02:48:03 PM 42.4764 -73.7919 306° West 245 282 4,400 -689 Descending Boston Center
Sat 02:48:18 PM 42.4875 -73.8067 316° Northwest 242 278 4,300 -1,000 Descending Boston Center
Sat 02:48:57 PM 42.5128 -73.8389 317° Northwest 209 241 3,500 -1,279 Descending Boston Center
Sat 02:49:19 PM 42.5344 -73.8506 338° Northwest 217 250 3,000 -882 Descending Boston Center
Sat 02:50:05 PM 42.5750 -73.8628 347° North 210 242 2,500 -871 Descending Boston Center
Sat 02:50:21 PM 42.5933 -73.8486 30° Northeast 220 253 2,100 -610 Descending Boston Center
Sat 02:51:04 PM 42.6250 -73.8244 29° Northeast 200 230 1,900 -203 Descending Boston Center
Sat 02:51:20 PM 42.6400 -73.8128 30° Northeast 198 228 1,900 -226 Level Boston Center
Sat 02:51:57 PM 42.6653 -73.8033 15° North 168 193 1,700 -563 Descending Boston Center
Sat 02:52:24 PM 42.6833 -73.8019 North 167 192 1,300 -787 Descending Boston Center
Sat 02:52:58 PM 42.7058 -73.8053 354° North 138 159 900 -689 Descending Boston Center
Sat 02:53:25 PM 42.7250 -73.8044 North 144 166 600 -483 Descending Boston Center
Sat 02:54:25 PM 42.7611 -73.8081 356° North 139 160 200 -400 Descending Boston Center
Sat 02:56:00 PM 42.7491 -73.8020 180° South  Level Estimated
Sat 03:03:00 PM 42.7491 -73.8020 180° South  Level Estimated

Login

Don't have an account? Register now (free) for customized features, flight alerts, and more!